Stations météo

Publicité
Southampton oceanography centre, Grande-Bretagne (99079): Température de l'air & dewpoint: 04.08.2020 00:00:00 - 10.08.2020 00:00:00 (BST)Southampton oceanography centre, Grande-Bretagne (99079): Vitesse du vent & gusts: 04.08.2020 00:00:00 - 10.08.2020 00:00:00 (BST)Southampton oceanography centre, Grande-Bretagne (99079): Direction du vent: 04.08.2020 00:00:00 - 10.08.2020 00:00:00 (BST)Southampton oceanography centre, Grande-Bretagne (99079): Quantités de précipitations: 04.08.2020 00:00:00 - 10.08.2020 00:00:00 (BST)
Date & Time tt [°C] td [°C] ff [km/h] ff [knt] fx [km/h] fx [knt] dd rr [mm]
10.08.2020 00:00:00 24,9 18,0 9 5 - - N 0,0
09.08.2020 23:00:00 26,5 17,4 8 4 - - NNE 0,0
09.08.2020 22:00:00 27,3 18,4 8 4 - - NNW 0,0
09.08.2020 21:00:00 28,4 18,2 9 5 - - N 0,0
09.08.2020 20:00:00 30,1 17,9 13 7 - - NNW 0,0
09.08.2020 19:00:00 31,9 17,2 5 3 - - NNE 0,0
09.08.2020 18:00:00 31,5 17,2 9 5 - - NNW 0,0
09.08.2020 17:00:00 32,2 17,4 5 3 - - NE 0,0
09.08.2020 16:00:00 31,9 17,8 5 3 - - NNE 0,0
09.08.2020 15:00:00 29,9 17,3 8 4 - - NE 0,0
09.08.2020 14:00:00 29,5 17,4 8 4 - - ENE 0,0
09.08.2020 13:00:00 27,0 16,8 9 5 - - NNE 0,0
09.08.2020 12:00:00 25,1 16,9 9 5 - - NNE 0,0
09.08.2020 11:00:00 23,3 16,6 13 7 - - NNE 0,0
09.08.2020 10:00:00 21,3 16,1 15 8 - - N 0,0
09.08.2020 09:00:00 19,8 15,7 15 8 - - NNE 0,0
09.08.2020 08:00:00 18,7 15,7 16 9 - - N 0,0
09.08.2020 07:00:00 17,6 15,2 15 8 - - N 0,0
09.08.2020 06:00:00 17,5 15,2 11 6 - - NNE 0,0
09.08.2020 05:00:00 17,6 15,1 11 6 - - NNE 0,0
09.08.2020 04:00:00 18,1 15,2 11 6 - - NNE 0,0
09.08.2020 03:00:00 18,9 15,6 11 6 - - NNE 0,0
09.08.2020 02:00:00 20,1 16,0 16 9 - - NNE 0,0
09.08.2020 01:00:00 21,4 16,3 16 9 - - NNE 0,0
09.08.2020 00:00:00 23,0 16,7 11 6 - - N 0,0
08.08.2020 23:00:00 24,4 17,1 11 6 - - NNE 0,0
08.08.2020 22:00:00 26,1 17,7 11 6 - - NE 0,0
08.08.2020 21:00:00 24,3 17,5 9 5 - - SE 0,0
08.08.2020 20:00:00 28,2 13,6 11 6 - - SE 0,0
08.08.2020 19:00:00 29,7 12,9 9 5 - - SE 0,0
08.08.2020 18:00:00 28,5 13,5 13 7 - - SE 0,0
08.08.2020 17:00:00 28,8 17,5 13 7 - - ESE 0,0
08.08.2020 16:00:00 31,6 17,8 11 6 - - NE 0,0
08.08.2020 15:00:00 31,3 17,7 9 5 - - NE 0,0
08.08.2020 14:00:00 30,6 17,8 9 5 - - NNE 0,0
08.08.2020 13:00:00 28,6 17,8 9 5 - - NE 0,0
08.08.2020 12:00:00 27,1 17,4 11 6 - - NE 0,0
08.08.2020 11:00:00 27,2 17,9 9 5 - - NNE 0,0
08.08.2020 10:00:00 25,2 17,6 13 7 - - NNE 0,0
08.08.2020 09:00:00 23,5 17,5 15 8 - - N 0,0
08.08.2020 08:00:00 22,3 17,3 9 5 - - NNW 0,0
08.08.2020 07:00:00 20,5 16,4 11 6 - - NNW 0,0
08.08.2020 06:00:00 20,8 16,3 9 5 - - NNW 0,0
08.08.2020 05:00:00 20,9 16,4 4 2 - - WNW 0,0
08.08.2020 04:00:00 21,0 16,4 9 5 - - NNW 0,0
08.08.2020 03:00:00 20,7 16,8 9 5 - - WNW 0,0
08.08.2020 02:00:00 21,1 16,7 5 3 - - NW 0,0
08.08.2020 01:00:00 21,8 16,1 5 3 - - WNW 0,0
08.08.2020 00:00:00 22,1 15,5 5 3 - - NW 0,0
07.08.2020 23:00:00 22,4 14,8 2 1 - - NNW 0,0
07.08.2020 22:00:00 23,4 15,1 4 2 - - WNW 0,0
07.08.2020 21:00:00 24,5 13,7 8 4 - - N 0,0
07.08.2020 20:00:00 23,5 14,4 5 3 - - SE 0,0
07.08.2020 19:00:00 24,1 14,2 4 2 - - S 0,0
07.08.2020 18:00:00 22,6 15,1 11 6 - - SSE 0,0
07.08.2020 17:00:00 25,1 16,6 5 3 - - ESE 0,0
07.08.2020 16:00:00 23,9 17,7 11 6 - - SE 0,0
07.08.2020 15:00:00 24,6 16,3 15 8 - - SSE 0,0
07.08.2020 14:00:00 24,3 17,3 18 10 - - SE 0,0
07.08.2020 13:00:00 24,9 17,0 11 6 - - SE 0,0
07.08.2020 12:00:00 23,5 16,2 21 11 - - SE 0,0
07.08.2020 11:00:00 27,4 14,7 5 3 - - S 0,0
07.08.2020 10:00:00 24,4 16,7 4 2 - - SSW 0,0
07.08.2020 09:00:00 23,1 16,9 2 1 - - N 0,0
07.08.2020 08:00:00 20,1 16,3 2 1 - - W 0,0
07.08.2020 07:00:00 17,2 14,7 4 2 - - N 0,0
07.08.2020 06:00:00 16,2 14,3 2 1 - - N 0,0
07.08.2020 05:00:00 16,0 14,3 5 3 - - N 0,0
07.08.2020 04:00:00 16,5 14,6 4 2 - - N 0,0
07.08.2020 03:00:00 17,2 14,9 4 2 - - N 0,0
07.08.2020 02:00:00 17,8 15,6 2 1 - - NW 0,0
07.08.2020 01:00:00 18,5 14,8 2 1 - - WSW 0,0
07.08.2020 00:00:00 18,8 15,5 2 1 - - W 0,0
06.08.2020 23:00:00 20,0 15,3 8 4 - - SW 0,0
06.08.2020 22:00:00 21,1 15,5 9 5 - - SW 0,0
06.08.2020 21:00:00 21,9 16,7 4 2 - - S 0,0
06.08.2020 20:00:00 22,8 16,6 9 5 - - SE 0,0
06.08.2020 19:00:00 23,0 16,8 13 7 - - SE 0,0
06.08.2020 18:00:00 23,7 16,5 15 8 - - SE 0,0
06.08.2020 17:00:00 23,6 16,7 15 8 - - SE 0,0
06.08.2020 16:00:00 23,6 17,1 16 9 - - SE 0,0
06.08.2020 15:00:00 23,2 16,8 21 11 - - SE 0,0
06.08.2020 14:00:00 22,4 17,3 16 9 - - SE 0,0
06.08.2020 13:00:00 22,8 16,2 16 9 - - S 0,0
06.08.2020 12:00:00 22,0 16,7 11 6 - - S 0,0
06.08.2020 11:00:00 20,0 16,8 15 8 - - SSE 0,0
06.08.2020 10:00:00 19,5 17,2 16 9 - - SSE 0,0
06.08.2020 09:00:00 19,0 17,5 15 8 - - SSE 0,0
06.08.2020 08:00:00 18,4 17,4 15 8 - - S 0,0
06.08.2020 07:00:00 18,0 17,6 11 6 - - S 0,0
06.08.2020 06:00:00 18,1 17,8 9 5 - - SSW 0,0
06.08.2020 05:00:00 17,9 17,5 8 4 - - SSW 0,0
06.08.2020 04:00:00 17,9 17,5 9 5 - - S 0,0
06.08.2020 03:00:00 17,9 17,4 13 7 - - SSW 0,0
06.08.2020 02:00:00 17,9 17,4 8 4 - - SSW 0,0
06.08.2020 01:00:00 18,0 17,3 11 6 - - SSW 0,0
06.08.2020 00:00:00 18,0 17,1 13 7 - - SSW 0,0
05.08.2020 23:00:00 17,6 16,6 18 10 - - SSW 0,0
05.08.2020 22:00:00 17,7 16,5 16 9 - - SSW 0,0
05.08.2020 21:00:00 18,6 15,7 21 11 - - SW 0,0
05.08.2020 20:00:00 19,4 15,3 18 10 - - SW 0,0
05.08.2020 19:00:00 20,2 15,1 26 14 - - SW 0,0
05.08.2020 18:00:00 20,8 14,6 26 14 46 25 SW 0,0
05.08.2020 17:00:00 21,8 15,0 24 13 - - SSW 0,0
05.08.2020 16:00:00 20,1 14,9 28 15 48 26 SSW 0,0
05.08.2020 15:00:00 19,9 14,7 24 13 - - SSW 0,0
05.08.2020 14:00:00 19,3 13,4 24 13 - - SSW 0,0
05.08.2020 13:00:00 19,3 14,3 22 12 - - SSW 0,0
05.08.2020 12:00:00 18,5 13,9 24 13 - - S 0,0
05.08.2020 11:00:00 19,4 13,9 22 12 - - S 0,0
05.08.2020 10:00:00 18,9 13,4 21 11 - - SSW 0,0
05.08.2020 09:00:00 17,9 14,5 18 10 - - S 0,0
05.08.2020 08:00:00 17,4 14,8 22 12 - - SSW 0,0
05.08.2020 07:00:00 17,1 14,5 18 10 - - SSW 0,0
05.08.2020 06:00:00 16,9 14,5 15 8 - - SSW 0,0
05.08.2020 05:00:00 16,9 14,7 15 8 - - SSW 0,0
05.08.2020 04:00:00 16,9 14,8 16 9 - - SW 0,0
05.08.2020 03:00:00 17,0 14,7 28 15 - - SSW 0,0
05.08.2020 02:00:00 16,6 14,5 22 12 - - SW 0,0
05.08.2020 01:00:00 16,7 14,3 18 10 - - SW 0,0
05.08.2020 00:00:00 16,6 14,1 18 10 - - SW 0,0
04.08.2020 23:00:00 16,4 14,0 16 9 - - SSW 0,0
04.08.2020 22:00:00 16,5 13,6 22 12 - - SSW 0,0
04.08.2020 21:00:00 16,8 13,0 18 10 - - SSW 0,0
04.08.2020 20:00:00 17,9 12,7 21 11 - - SW 0,0
04.08.2020 19:00:00 18,2 12,7 26 14 - - SSW 0,0
04.08.2020 18:00:00 19,0 13,0 28 15 48 26 SW 0,0
04.08.2020 17:00:00 18,8 12,4 29 16 - - SSW 0,0
04.08.2020 16:00:00 19,3 12,0 34 18 48 26 SW 0,0
04.08.2020 15:00:00 18,6 11,5 29 16 - - SW 0,0
04.08.2020 14:00:00 19,3 9,5 26 14 - - SW 0,0
04.08.2020 13:00:00 18,3 10,4 22 12 - - SSW 0,0
04.08.2020 12:00:00 19,4 7,8 21 11 - - SW 0,0
04.08.2020 11:00:00 18,0 7,2 15 8 - - S 0,0
04.08.2020 10:00:00 18,7 9,8 5 3 - - S 0,0
04.08.2020 09:00:00 17,0 8,8 5 3 - - W 0,0
04.08.2020 08:00:00 14,1 8,5 8 4 - - WNW 0,0
04.08.2020 07:00:00 12,8 8,0 5 3 - - NW 0,0
04.08.2020 06:00:00 11,6 7,7 8 4 - - WNW 0,0
04.08.2020 05:00:00 12,1 7,5 5 3 - - WNW 0,0
04.08.2020 04:00:00 12,6 7,6 8 4 - - NW 0,0
04.08.2020 03:00:00 13,2 7,9 4 2 - - NW 0,0
04.08.2020 02:00:00 13,7 8,4 8 4 - - NW 0,0
04.08.2020 01:00:00 14,2 9,1 8 4 - - NW 0,0
04.08.2020 00:00:00 14,9 9,6 8 4 - - NW 0,0

tt = Température de l'air
td = dewpoint
ff = Vitesse du vent
fx = gusts
dd = Direction du vent
rr = Quantités de précipitations

stations d'obs. à proximité